Aguas da Prata, Brazil
Current Conditions -  °F | °C
As of 6:00 AM on Wednesday 22 Oct 2014 (Local Time) from SBYS Reporting Station
Few Clouds Few Clouds  
Wind Chill: 61°   Ceiling: Unl
Heat Index: 61°   Visibility: 6mi
Dew Point: 52°   Wind: 12mph
Humidity: 72%   Direction: 190°S
Pressure: 30.06"   Gusts: NA
Location:  21.94°S, 46.72°W
Report Text: SBYS 220800Z 19010KT 9999 FEW035 16/11 Q1018
Loading
Personal Weather Stations






























Interactive Weather Map
Tropical Storm Tracking
New forecast layout! Learn more

10-Day Weather Forecast

Advertisements
Track Severe Weather on mobile